Time;durP1;ratioP1;P1;durP2;ratioP2;P2;SDS_P1;SDS_P2;PMS_P1;PMS_P2;Temp;Humidity;BMP_temperature;BMP_pressure;BME280_temperature;BME280_humidity;BME280_pressure;Samples;Min_cycle;Max_cycle;Signal;HPM_P1;HPM_P2
2022/08/12 00:43:42;;;;;;;2.92;0.98;;;27.00;87.30;;;;;;4953910;28;20043;-84
2022/08/12 00:49:00;;;;;;;3.22;1.27;;;27.10;86.90;;;;;;4952861;28;20043;-84
2022/08/12 00:54:17;;;;;;;2.13;0.60;;;26.80;87.80;;;;;;4964395;28;20496;-85
2022/08/12 00:56:49;;;;;;;2.58;0.70;;;26.90;87.30;;;;;;4967547;28;20053;-85
2022/08/12 00:59:18;;;;;;;1.65;0.85;;;27.10;87.00;;;;;;4969484;28;20537;-85
2022/08/12 01:01:47;;;;;;;1.33;0.75;;;27.10;86.70;;;;;;4962179;28;20526;-85
2022/08/12 01:13:03;;;;;;;1.85;0.77;;;26.90;89.10;;;;;;4962326;28;20047;-84
2022/08/12 01:15:48;;;;;;;2.08;0.88;;;26.80;89.40;;;;;;4960458;28;20097;-83
2022/08/12 01:18:18;;;;;;;6.38;1.08;;;26.70;90.10;;;;;;4954156;28;20055;-80
2022/08/12 01:20:59;;;;;;;1.27;0.88;;;26.70;90.80;;;;;;4955312;28;20054;-84
2022/08/12 01:23:55;;;;;;;3.97;0.93;;;26.80;91.10;;;;;;4957766;28;20051;-84
2022/08/12 01:26:32;;;;;;;2.85;0.88;;;26.70;91.10;;;;;;4964264;28;20125;-83
2022/08/12 01:29:01;;;;;;;3.13;0.80;;;26.80;90.70;;;;;;4959062;28;20134;-83
2022/08/12 01:31:36;;;;;;;2.03;0.65;;;26.80;89.80;;;;;;4969247;28;20125;-84
2022/08/12 01:34:06;;;;;;;2.67;0.85;;;26.70;89.60;;;;;;4966979;28;20049;-83
2022/08/12 01:36:57;;;;;;;3.50;0.70;;;26.70;89.20;;;;;;4954429;28;20050;-83
2022/08/12 01:39:30;;;;;;;2.17;0.80;;;26.60;89.30;;;;;;4959869;28;20047;-83
2022/08/12 01:42:03;;;;;;;0.98;0.60;;;26.60;89.30;;;;;;4960669;28;20461;-83
2022/08/12 01:44:32;;;;;;;1.38;0.80;;;26.40;89.60;;;;;;4961212;28;20059;-83
2022/08/12 01:47:22;;;;;;;2.38;0.90;;;26.40;89.60;;;;;;4959181;28;20485;-83
2022/08/12 01:50:05;;;;;;;2.45;0.95;;;26.40;89.50;;;;;;4966091;28;20456;-84
2022/08/12 01:52:43;;;;;;;1.83;0.98;;;26.50;89.50;;;;;;4960833;28;20053;-83
2022/08/12 01:55:13;;;;;;;2.13;0.73;;;26.50;89.50;;;;;;4960950;28;20051;-83
2022/08/12 01:57:48;;;;;;;2.33;0.80;;;26.50;89.30;;;;;;4966094;28;20212;-84
2022/08/12 02:00:43;;;;;;;2.75;0.68;;;26.40;89.30;;;;;;4956659;28;20053;-83
2022/08/12 02:12:41;;;;;;;1.55;0.60;;;26.30;89.20;;;;;;4960103;28;20071;-83
2022/08/12 02:15:22;;;;;;;2.10;0.90;;;26.30;89.30;;;;;;4955265;28;20054;-84
2022/08/12 02:18:08;;;;;;;2.95;0.77;;;26.40;89.20;;;;;;4966749;28;20170;-84
2022/08/12 02:20:42;;;;;;;1.05;0.80;;;26.30;89.20;;;;;;4969600;28;20078;-83
2022/08/12 02:23:25;;;;;;;2.17;0.88;;;26.30;89.20;;;;;;4966992;28;20111;-83
2022/08/12 02:25:59;;;;;;;1.00;0.70;;;26.30;89.50;;;;;;4947136;29;20078;-83
2022/08/12 02:28:28;;;;;;;0.60;0.60;;;26.30;89.50;;;;;;4971881;28;20050;-84
2022/08/12 02:31:03;;;;;;;3.33;1.00;;;26.30;89.50;;;;;;4971733;28;20039;-84
2022/08/12 02:33:32;;;;;;;3.35;0.80;;;26.30;90.20;;;;;;4956145;28;20611;-81
2022/08/12 02:36:01;;;;;;;2.28;0.60;;;26.40;91.00;;;;;;4960792;28;20188;-81
2022/08/12 02:38:42;;;;;;;4.95;1.02;;;26.40;91.50;;;;;;4959302;28;20047;-78
2022/08/12 02:41:11;;;;;;;1.85;0.88;;;26.40;91.80;;;;;;4963965;28;20527;-84
2022/08/12 02:43:45;;;;;;;2.63;0.85;;;26.20;92.30;;;;;;4969980;28;20051;-83
2022/08/12 02:46:19;;;;;;;2.45;0.60;;;26.10;92.40;;;;;;4969887;28;20177;-84
2022/08/12 02:48:50;;;;;;;3.25;1.30;;;26.20;92.90;;;;;;4971549;28;20109;-82
2022/08/12 02:51:22;;;;;;;1.95;0.70;;;26.10;92.90;;;;;;4970541;28;20058;-83
2022/08/12 02:53:51;;;;;;;2.10;0.70;;;25.90;93.30;;;;;;4963630;28;20046;-84
2022/08/12 02:56:36;;;;;;;1.15;0.68;;;26.00;93.60;;;;;;4959903;28;20594;-83
2022/08/12 02:59:05;;;;;;;1.42;0.85;;;25.60;94.20;;;;;;4979467;28;20377;-83
2022/08/12 03:01:39;;;;;;;2.20;0.95;;;25.40;94.60;;;;;;4965269;28;20663;-84
2022/08/12 03:04:25;;;;;;;1.13;0.80;;;25.60;94.00;;;;;;4961204;28;20043;-84
2022/08/12 03:07:03;;;;;;;1.92;1.00;;;25.70;94.00;;;;;;4950533;28;20145;-84
2022/08/12 03:09:38;;;;;;;2.15;0.80;;;25.80;93.90;;;;;;4959663;28;20125;-84
2022/08/12 03:12:26;;;;;;;3.85;1.00;;;25.70;95.00;;;;;;4965808;28;20488;-84
2022/08/12 03:15:05;;;;;;;1.33;0.70;;;25.80;95.00;;;;;;4961112;28;20094;-83
2022/08/12 03:17:43;;;;;;;0.80;0.70;;;25.90;94.90;;;;;;4962963;28;20442;-84
2022/08/12 03:20:15;;;;;;;2.55;0.82;;;25.90;94.70;;;;;;4965247;28;20039;-85
2022/08/12 03:22:44;;;;;;;3.00;1.08;;;25.90;94.70;;;;;;4970585;28;20047;-84
2022/08/12 03:25:15;;;;;;;2.78;0.90;;;25.70;95.20;;;;;;4969631;28;20057;-84
2022/08/12 03:27:54;;;;;;;2.65;1.08;;;25.70;95.50;;;;;;4969874;28;20053;-84
2022/08/12 03:30:25;;;;;;;1.25;0.95;;;25.60;95.90;;;;;;4970188;28;20054;-84
2022/08/12 03:32:56;;;;;;;2.25;0.80;;;25.60;95.90;;;;;;4962786;28;20055;-84
2022/08/12 03:35:27;;;;;;;2.92;1.00;;;25.60;95.80;;;;;;4958436;28;20061;-84
2022/08/12 03:38:10;;;;;;;1.55;0.60;;;25.70;94.90;;;;;;4966853;28;20126;-84
2022/08/12 04:00:37;;;;;;;2.22;0.90;;;25.30;92.70;;;;;;4962282;28;20054;-85
2022/08/12 04:03:50;;;;;;;1.55;0.80;;;25.30;95.60;;;;;;4949838;28;20046;-85
2022/08/12 04:05:56;;;;;;;2.85;0.80;;;25.20;96.70;;;;;;4960048;28;20043;-85
2022/08/12 04:08:25;;;;;;;1.73;0.90;;;24.90;96.70;;;;;;4964523;28;20067;-84
2022/08/12 04:13:39;;;;;;;;;;;24.90;96.70;;;;;;4964275;28;20054;-85
2022/08/12 04:16:09;;;;;;;1.77;1.00;;;24.90;96.70;;;;;;4952910;28;19933;-84
2022/08/12 04:18:38;;;;;;;1.13;0.68;;;25.00;96.70;;;;;;4964435;28;20124;-85
2022/08/12 04:21:09;;;;;;;1.85;1.00;;;25.20;96.70;;;;;;4969565;28;20043;-85
2022/08/12 04:23:41;;;;;;;1.58;0.95;;;25.20;96.70;;;;;;4968184;28;20046;-84
2022/08/12 04:26:15;;;;;;;2.80;0.80;;;25.10;96.70;;;;;;4949385;28;20053;-85
2022/08/12 04:28:44;;;;;;;2.30;0.90;;;25.10;96.70;;;;;;4957136;28;20058;-85
2022/08/12 04:31:13;;;;;;;3.65;0.90;;;25.20;96.50;;;;;;4960113;28;20049;-84
2022/08/12 04:33:42;;;;;;;1.15;1.05;;;25.00;96.50;;;;;;4959687;28;20046;-85
2022/08/12 04:36:12;;;;;;;4.32;0.93;;;25.00;96.40;;;;;;4968694;28;20053;-85
2022/08/12 04:38:41;;;;;;;1.65;0.80;;;24.90;96.40;;;;;;4963447;28;20070;-84
2022/08/12 04:41:09;;;;;;;3.65;0.80;;;24.70;96.70;;;;;;4959245;28;20559;-84
2022/08/12 04:43:37;;;;;;;2.60;0.95;;;24.70;96.70;;;;;;4968527;28;20049;-84
2022/08/12 04:46:26;;;;;;;1.55;0.85;;;24.80;96.20;;;;;;4950829;28;20485;-85
2022/08/12 04:49:03;;;;;;;1.15;0.70;;;24.80;96.20;;;;;;4967397;28;20057;-84
2022/08/12 04:51:33;;;;;;;3.72;0.75;;;24.80;96.10;;;;;;4968818;28;20046;-85
2022/08/12 04:54:03;;;;;;;3.97;1.10;;;24.70;96.00;;;;;;4967641;28;20599;-84
2022/08/12 04:56:31;;;;;;;2.13;0.70;;;24.70;95.90;;;;;;4962562;28;20496;-85
2022/08/12 04:59:03;;;;;;;1.30;0.63;;;24.70;95.80;;;;;;4949564;28;20057;-85
2022/08/12 05:01:32;;;;;;;4.07;0.88;;;24.70;95.80;;;;;;4965725;28;20050;-84
2022/08/12 05:04:01;;;;;;;2.00;0.80;;;24.80;95.70;;;;;;4974841;28;20527;-84
2022/08/12 05:06:29;;;;;;;2.80;0.80;;;24.80;95.70;;;;;;4949898;28;20074;-85
2022/08/12 05:08:59;;;;;;;2.08;1.10;;;25.00;95.80;;;;;;4945694;28;20058;-84
2022/08/12 05:11:27;;;;;;;3.10;0.98;;;25.00;95.90;;;;;;4960567;28;20047;-83
2022/08/12 05:13:59;;;;;;;1.38;1.05;;;24.90;96.10;;;;;;4939372;29;20044;-84
2022/08/12 05:16:27;;;;;;;2.03;0.85;;;24.70;96.60;;;;;;4962653;28;20130;-85
2022/08/12 05:19:02;;;;;;;4.80;1.05;;;24.90;96.50;;;;;;4965498;28;20110;-84
2022/08/12 05:21:32;;;;;;;1.48;0.90;;;24.90;96.40;;;;;;4964760;28;20047;-84
2022/08/12 05:24:01;;;;;;;3.00;1.55;;;24.90;96.40;;;;;;4968496;28;20038;-84
2022/08/12 05:26:29;;;;;;;3.08;1.02;;;24.90;96.40;;;;;;4948110;28;20809;-85
2022/08/12 05:28:57;;;;;;;3.97;0.88;;;24.80;96.50;;;;;;4966863;28;20047;-85
2022/08/12 05:31:25;;;;;;;3.00;0.73;;;24.80;96.60;;;;;;4967138;28;20043;-84
2022/08/12 05:34:13;;;;;;;3.80;1.10;;;24.90;96.50;;;;;;4966349;28;20074;-84
2022/08/12 05:36:42;;;;;;;2.15;0.85;;;24.90;96.40;;;;;;4967799;28;20038;-84
2022/08/12 05:39:12;;;;;;;1.52;0.63;;;25.00;96.10;;;;;;4962367;28;20098;-83
2022/08/12 05:41:40;;;;;;;4.60;1.15;;;25.20;95.40;;;;;;4955564;28;20508;-85
2022/08/12 05:44:12;;;;;;;4.25;0.90;;;25.20;95.40;;;;;;4967083;28;20126;-85
2022/08/12 05:46:40;;;;;;;4.68;1.00;;;25.10;95.40;;;;;;4957085;28;20057;-84
2022/08/12 05:49:08;;;;;;;3.22;0.82;;;24.70;96.40;;;;;;4970780;28;20419;-84
2022/08/12 05:51:38;;;;;;;3.30;1.00;;;24.90;96.40;;;;;;4965362;28;20069;-84
2022/08/12 05:54:10;;;;;;;2.25;0.80;;;25.10;95.90;;;;;;4970717;28;20054;-85
2022/08/12 05:56:41;;;;;;;2.78;0.93;;;25.30;95.00;;;;;;4962593;28;20130;-86
2022/08/12 05:59:11;;;;;;;1.23;0.80;;;25.50;94.50;;;;;;4960339;28;20043;-85
2022/08/12 06:01:40;;;;;;;2.25;0.90;;;25.70;94.30;;;;;;4962606;28;20043;-87
2022/08/12 06:04:29;;;;;;;5.20;1.38;;;25.80;93.80;;;;;;4963099;28;20051;-82
2022/08/12 06:06:57;;;;;;;1.67;1.00;;;25.70;93.70;;;;;;4963934;28;20493;-82
2022/08/12 06:09:27;;;;;;;3.47;1.25;;;25.80;93.70;;;;;;4953848;28;20706;-82
2022/08/12 06:11:57;;;;;;;2.83;0.95;;;25.70;94.10;;;;;;4966667;28;20516;-81
2022/08/12 06:14:35;;;;;;;2.28;1.00;;;25.60;94.20;;;;;;4968845;28;20106;-82
2022/08/12 06:17:07;;;;;;;3.50;0.80;;;25.80;94.50;;;;;;4963426;28;20150;-81
2022/08/12 06:19:35;;;;;;;2.95;1.33;;;25.80;94.80;;;;;;4949569;28;20233;-81
2022/08/12 06:22:25;;;;;;;3.75;1.63;;;25.60;95.50;;;;;;4961793;28;20051;-82
2022/08/12 06:24:53;;;;;;;5.20;2.42;;;25.30;94.70;;;;;;4963882;28;20050;-80
2022/08/12 06:27:22;;;;;;;7.25;3.65;;;25.20;94.60;;;;;;4963524;28;20141;-80
2022/08/12 06:29:51;;;;;;;5.38;3.35;;;25.10;94.40;;;;;;4968283;28;20103;-81
2022/08/12 06:32:37;;;;;;;6.30;4.10;;;25.20;94.40;;;;;;4962768;28;20047;-80
2022/08/12 06:35:26;;;;;;;9.60;4.15;;;25.40;94.10;;;;;;4966885;28;20047;-86
2022/08/12 06:38:16;;;;;;;15.43;4.55;;;25.30;94.30;;;;;;4955258;28;20126;-86
2022/08/12 06:43:33;;;;;;;11.43;6.15;;;25.60;94.10;;;;;;4967964;28;20101;-86
2022/08/12 06:46:23;;;;;;;12.38;8.65;;;25.60;94.40;;;;;;4968636;28;20039;-85
2022/08/12 06:48:56;;;;;;;10.15;7.70;;;25.40;95.90;;;;;;4969743;28;20055;-86
2022/08/12 06:51:25;;;;;;;11.43;7.10;;;25.30;96.70;;;;;;4958435;28;20077;-86
2022/08/12 06:53:54;;;;;;;9.50;7.65;;;25.30;96.70;;;;;;4970605;28;20094;-87
2022/08/12 06:56:22;;;;;;;11.68;8.23;;;25.50;96.70;;;;;;4959112;28;20043;-87
2022/08/12 06:59:14;;;;;;;13.55;8.68;;;25.60;96.70;;;;;;4959226;28;20049;-84
2022/08/12 07:01:42;;;;;;;9.93;7.65;;;25.60;96.70;;;;;;4956259;28;20525;-83
2022/08/12 07:04:18;;;;;;;13.87;8.60;;;25.40;96.70;;;;;;4949539;28;20049;-85
2022/08/12 07:07:05;;;;;;;11.77;7.93;;;25.40;96.70;;;;;;4965329;28;20058;-82
2022/08/12 07:09:34;;;;;;;10.95;7.90;;;25.50;96.70;;;;;;4966800;28;20074;-82
2022/08/12 07:12:26;;;;;;;12.93;8.65;;;25.40;96.70;;;;;;4956783;28;20047;-88
2022/08/12 07:15:05;;;;;;;15.43;8.40;;;25.50;96.70;;;;;;4964151;28;20050;-85
2022/08/12 07:17:36;;;;;;;16.20;8.50;;;25.30;96.70;;;;;;4969349;28;20045;-85
2022/08/12 07:20:11;;;;;;;11.25;8.30;;;25.20;96.70;;;;;;4952787;28;20507;-86
2022/08/12 07:23:00;;;;;;;14.27;9.00;;;25.30;96.70;;;;;;4958982;28;20055;-88
2022/08/12 07:25:31;;;;;;;12.52;9.35;;;25.50;96.70;;;;;;4962528;28;20130;-88
2022/08/12 07:28:11;;;;;;;12.07;8.65;;;25.50;96.70;;;;;;4960177;28;20054;-87
2022/08/12 07:30:47;;;;;;;12.63;10.05;;;25.60;96.70;;;;;;4946138;29;20505;-88
2022/08/12 07:33:17;;;;;;;15.07;9.45;;;25.60;96.70;;;;;;4958895;28;20094;-88
2022/08/12 07:35:46;;;;;;;12.05;9.30;;;25.50;96.70;;;;;;4959618;28;20039;-89
2022/08/12 07:38:26;;;;;;;12.40;8.45;;;25.50;96.70;;;;;;4961615;28;20058;-87
2022/08/12 07:41:02;;;;;;;11.48;8.93;;;25.50;96.70;;;;;;4958256;28;20078;-82
2022/08/12 07:43:31;;;;;;;10.82;8.77;;;25.60;96.70;;;;;;4962035;28;20061;-83
2022/08/12 07:46:03;;;;;;;10.80;8.00;;;25.70;96.70;;;;;;4967204;28;20093;-81
2022/08/12 07:48:36;;;;;;;10.02;8.30;;;25.60;96.70;;;;;;4959126;28;20708;-82
2022/08/12 07:51:04;;;;;;;10.90;8.55;;;25.90;96.70;;;;;;4943357;28;20150;-81
2022/08/12 07:53:33;;;;;;;12.50;9.55;;;26.00;96.70;;;;;;4964982;28;20098;-81
2022/08/12 07:56:15;;;;;;;9.77;7.93;;;26.20;96.70;;;;;;4943481;28;20102;-83
2022/08/12 07:58:43;;;;;;;11.27;8.43;;;26.20;96.70;;;;;;4964300;28;20035;-82
2022/08/12 08:01:20;;;;;;;10.40;8.30;;;26.40;96.70;;;;;;4964449;28;20106;-83
2022/08/12 08:06:47;;;;;;;17.60;8.80;;;26.80;96.70;;;;;;4952368;28;20066;-83
2022/08/12 08:09:16;;;;;;;11.55;8.10;;;26.80;96.70;;;;;;4946936;28;20055;-82
2022/08/12 08:14:31;;;;;;;10.10;7.70;;;26.70;96.70;;;;;;4964120;28;20051;-82
2022/08/12 08:17:03;;;;;;;10.88;7.88;;;26.70;96.70;;;;;;4962705;28;20038;-83
2022/08/12 08:19:32;;;;;;;10.02;7.35;;;27.00;96.70;;;;;;4950386;28;20512;-81
2022/08/12 08:22:20;;;;;;;9.15;7.20;;;27.00;96.70;;;;;;4960716;28;20065;-82
2022/08/12 08:25:09;;;;;;;11.80;7.90;;;27.00;96.70;;;;;;4941788;28;20066;-83
2022/08/12 08:27:59;;;;;;;11.18;6.50;;;26.90;96.70;;;;;;4965190;28;20051;-82
2022/08/12 08:30:28;;;;;;;8.85;6.72;;;26.90;96.70;;;;;;4964449;28;20399;-83
2022/08/12 08:32:57;;;;;;;10.65;6.93;;;27.00;96.70;;;;;;4957584;28;20448;-82
2022/08/12 08:35:26;;;;;;;9.40;6.43;;;27.10;96.70;;;;;;4946136;28;20178;-81
2022/08/12 08:38:16;;;;;;;8.73;5.65;;;27.20;96.70;;;;;;4961950;28;20106;-82
2022/08/12 08:44:09;;;;;;;7.18;5.68;;;27.20;96.70;;;;;;4961937;28;20049;-83
2022/08/12 08:46:38;;;;;;;5.80;5.18;;;27.40;96.70;;;;;;4965049;28;20042;-81
2022/08/12 08:49:08;;;;;;;4.97;4.40;;;27.40;96.70;;;;;;4957443;28;20417;-82
2022/08/12 08:51:37;;;;;;;4.82;3.80;;;27.40;96.70;;;;;;4963690;28;20514;-81
2022/08/12 08:54:07;;;;;;;5.97;4.07;;;27.50;96.70;;;;;;4963727;28;20101;-82
2022/08/12 08:56:42;;;;;;;3.53;3.22;;;27.60;96.70;;;;;;4940823;28;20582;-82
2022/08/12 08:59:11;;;;;;;4.40;3.70;;;27.70;96.70;;;;;;4956341;28;20142;-81
2022/08/12 09:01:40;;;;;;;4.88;3.17;;;27.70;96.70;;;;;;4946714;28;20034;-81
2022/08/12 09:04:13;;;;;;;3.90;2.97;;;27.80;96.70;;;;;;4962898;28;20113;-81
2022/08/12 09:07:02;;;;;;;4.30;3.00;;;27.90;96.70;;;;;;4961687;28;20489;-81
2022/08/12 09:09:49;;;;;;;4.53;2.95;;;28.00;96.70;;;;;;4965332;28;20087;-81
2022/08/12 09:15:23;;;;;;;4.60;2.70;;;28.20;96.10;;;;;;4963689;28;20413;-81
2022/08/12 09:18:04;;;;;;;5.45;2.60;;;28.10;95.80;;;;;;4963547;28;20047;-82
2022/08/12 09:20:39;;;;;;;4.07;2.80;;;28.10;95.30;;;;;;4964341;28;20039;-80
2022/08/12 09:23:27;;;;;;;2.47;2.10;;;28.10;94.50;;;;;;4947231;28;20069;-82
2022/08/12 09:26:18;;;;;;;3.85;2.03;;;28.20;92.90;;;;;;4959457;28;20055;-81
2022/08/12 09:28:47;;;;;;;3.17;2.10;;;28.30;92.00;;;;;;4974939;28;20849;-81
2022/08/12 09:31:20;;;;;;;3.42;1.92;;;28.40;91.10;;;;;;4964115;28;20051;-84
2022/08/12 09:34:09;;;;;;;4.28;2.15;;;28.40;91.20;;;;;;4966692;28;20046;-83
2022/08/12 09:36:55;;;;;;;2.17;1.73;;;28.40;89.40;;;;;;4955743;28;20566;-83
2022/08/12 09:39:29;;;;;;;3.73;1.77;;;28.50;90.30;;;;;;4961920;28;20089;-83
2022/08/12 09:45:24;;;;;;;2.60;1.90;;;28.70;89.10;;;;;;4956968;28;20101;-84
2022/08/12 09:48:18;;;;;;;3.58;1.75;;;28.80;88.90;;;;;;4958254;28;20047;-84
2022/08/12 09:50:50;;;;;;;2.72;1.58;;;28.80;87.80;;;;;;4956554;28;20058;-84
2022/08/12 09:53:26;;;;;;;;;;;28.80;87.90;;;;;;4959139;28;20050;-83
2022/08/12 09:56:16;;;;;;;3.78;1.90;;;28.90;88.30;;;;;;4953715;28;19937;-84
2022/08/12 09:59:07;;;;;;;2.20;1.58;;;28.90;88.50;;;;;;4966970;28;20131;-84
2022/08/12 10:01:39;;;;;;;1.95;1.50;;;29.20;87.80;;;;;;4941520;28;20048;-81
2022/08/12 10:04:27;;;;;;;1.88;1.58;;;29.40;87.60;;;;;;4961794;28;20050;-80
2022/08/12 10:06:57;;;;;;;3.03;1.88;;;29.60;86.40;;;;;;4964774;28;20055;-83
2022/08/12 10:09:28;;;;;;;1.90;1.52;;;29.70;86.30;;;;;;4964520;28;20151;-82
2022/08/12 10:15:03;;;;;;;;;;;30.20;84.20;;;;;;4963928;28;20051;-81
2022/08/12 10:17:32;;;;;;;2.47;1.60;;;30.70;85.10;;;;;;4947238;28;20009;-81
2022/08/12 10:20:20;;;;;;;3.05;1.77;;;30.90;84.10;;;;;;4960897;28;20047;-81
2022/08/12 10:22:56;;;;;;;2.00;1.80;;;31.00;83.80;;;;;;4941374;28;20043;-81
2022/08/12 10:31:30;;;;;;;1.92;1.55;;;30.70;83.20;;;;;;4967083;28;20050;-81
2022/08/12 10:34:21;;;;;;;1.80;1.40;;;30.60;82.80;;;;;;4964382;28;20497;-82
2022/08/12 10:36:57;;;;;;;2.05;1.40;;;30.80;82.00;;;;;;4967256;28;20051;-82
2022/08/12 10:39:45;;;;;;;3.17;1.67;;;30.90;82.70;;;;;;4964080;28;20544;-82
2022/08/12 10:45:30;;;;;;;5.30;1.80;;;31.00;81.50;;;;;;4963435;28;20051;-78
2022/08/12 10:48:04;;;;;;;2.08;1.15;;;30.80;81.10;;;;;;4966170;28;20042;-78
2022/08/12 10:50:52;;;;;;;3.00;1.50;;;30.70;80.60;;;;;;4952971;28;20109;-81
2022/08/12 10:53:30;;;;;;;1.88;1.15;;;30.80;80.20;;;;;;4966239;28;20042;-82
2022/08/12 10:56:14;;;;;;;3.75;1.40;;;30.90;81.10;;;;;;4964891;28;20049;-81
2022/08/12 10:58:44;;;;;;;1.38;1.00;;;31.00;80.60;;;;;;4949411;28;20039;-82
2022/08/12 11:01:15;;;;;;;2.50;1.23;;;31.10;79.60;;;;;;4964350;28;20038;-81
2022/08/12 11:04:08;;;;;;;4.32;1.48;;;31.20;78.30;;;;;;4961393;28;20584;-82
2022/08/12 11:06:57;;;;;;;1.90;1.05;;;31.30;78.10;;;;;;4964117;28;20042;-82
2022/08/12 11:09:47;;;;;;;1.65;1.10;;;31.30;78.90;;;;;;4966318;28;20070;-82
2022/08/12 11:12:29;;;;;;;2.75;1.00;;;31.20;78.80;;;;;;4947924;28;20088;-82
2022/08/12 11:15:20;;;;;;;1.42;1.05;;;31.30;78.60;;;;;;4963695;28;20046;-82
2022/08/12 11:18:09;;;;;;;2.03;1.00;;;31.30;78.90;;;;;;4965723;28;20471;-82
2022/08/12 11:20:46;;;;;;;1.90;0.95;;;31.60;78.20;;;;;;4966424;28;20129;-82
2022/08/12 11:23:16;;;;;;;4.38;1.10;;;31.60;77.20;;;;;;4964823;28;20051;-81
2022/08/12 11:25:52;;;;;;;1.98;1.30;;;31.50;77.10;;;;;;4963473;28;20050;-81
2022/08/12 11:28:25;;;;;;;1.77;1.10;;;31.30;77.40;;;;;;4957825;28;20130;-82
2022/08/12 11:31:06;;;;;;;2.35;1.08;;;31.30;77.80;;;;;;4964043;28;20432;-82
2022/08/12 11:33:41;;;;;;;2.78;1.50;;;31.60;77.00;;;;;;4966279;28;20042;-81
2022/08/12 11:36:30;;;;;;;3.50;1.30;;;31.70;75.90;;;;;;4979803;28;20047;-81
2022/08/12 11:38:58;;;;;;;3.33;1.20;;;31.90;75.90;;;;;;4965109;28;20047;-81
2022/08/12 11:41:33;;;;;;;2.08;1.10;;;32.10;75.80;;;;;;4963367;28;20526;-82
2022/08/12 11:44:02;;;;;;;2.28;1.20;;;32.40;75.50;;;;;;4960355;28;20505;-81
2022/08/12 11:46:53;;;;;;;1.52;1.10;;;32.60;75.90;;;;;;4955371;28;20047;-82
2022/08/12 11:49:22;;;;;;;1.17;1.08;;;32.70;75.80;;;;;;4962776;28;20050;-81
2022/08/12 11:52:00;;;;;;;1.42;1.20;;;32.90;75.30;;;;;;4963180;28;20055;-78
2022/08/12 11:54:30;;;;;;;2.03;1.20;;;33.10;73.80;;;;;;4964118;28;20093;-82
2022/08/12 11:56:59;;;;;;;1.42;1.15;;;33.20;75.60;;;;;;4954974;28;20146;-81
2022/08/12 11:59:30;;;;;;;1.38;1.20;;;33.10;76.30;;;;;;4945561;28;20568;-81
2022/08/12 12:02:20;;;;;;;2.75;1.10;;;33.10;76.50;;;;;;4951250;28;20436;-82
2022/08/12 12:04:49;;;;;;;1.67;1.55;;;33.20;76.80;;;;;;4961001;28;20046;-81
2022/08/12 12:07:21;;;;;;;2.00;1.20;;;33.30;75.80;;;;;;4964649;28;20508;-82
2022/08/12 12:10:10;;;;;;;3.25;1.35;;;33.00;75.80;;;;;;4965390;28;20090;-82
2022/08/12 12:12:39;;;;;;;6.43;1.30;;;32.70;75.50;;;;;;4960838;28;20051;-80
2022/08/12 12:15:16;;;;;;;1.60;1.30;;;32.80;76.20;;;;;;4961405;28;20061;-84
2022/08/12 12:17:53;;;;;;;;;;;32.80;76.40;;;;;;4949285;28;20107;-87
2022/08/12 12:20:22;;;;;;;2.95;1.30;;;33.40;76.00;;;;;;4959858;28;19989;-85
2022/08/12 12:22:54;;;;;;;2.03;1.40;;;33.50;75.80;;;;;;4968261;28;20043;-84
2022/08/12 12:25:23;;;;;;;1.75;1.17;;;33.30;75.70;;;;;;4965979;28;20573;-85
2022/08/12 12:28:12;;;;;;;6.38;1.80;;;33.20;75.60;;;;;;4957249;28;20135;-85
2022/08/12 12:31:00;;;;;;;6.95;1.70;;;33.50;75.20;;;;;;4958916;28;20055;-81
2022/08/12 12:33:32;;;;;;;2.58;1.88;;;33.70;74.60;;;;;;4964591;28;20097;-80
2022/08/12 12:36:21;;;;;;;2.92;1.25;;;33.70;74.30;;;;;;4964463;28;20134;-81
2022/08/12 12:38:57;;;;;;;2.58;1.10;;;33.40;74.60;;;;;;4960758;28;20984;-80
2022/08/12 12:41:28;;;;;;;2.33;1.20;;;33.40;74.80;;;;;;4956387;28;20050;-78
2022/08/12 12:44:16;;;;;;;5.43;4.57;;;33.60;74.20;;;;;;4954411;28;20071;-79
2022/08/12 12:46:57;;;;;;;5.95;5.38;;;33.60;74.70;;;;;;4960677;28;20043;-78
2022/08/12 12:49:29;;;;;;;3.30;2.33;;;33.30;74.40;;;;;;4942608;28;20058;-82
2022/08/12 12:51:57;;;;;;;3.60;1.50;;;33.20;76.20;;;;;;4939718;28;20061;-82
2022/08/12 12:54:51;;;;;;;1.65;1.02;;;33.20;75.30;;;;;;4962859;28;20050;-84
2022/08/12 12:57:20;;;;;;;1.73;0.85;;;33.00;75.00;;;;;;4965065;28;20063;-83
2022/08/12 13:00:13;;;;;;;3.08;1.20;;;32.90;75.10;;;;;;4958462;28;20050;-84
2022/08/12 13:02:49;;;;;;;1.15;1.08;;;32.90;75.30;;;;;;4964011;28;20509;-84
2022/08/12 13:05:27;;;;;;;2.17;1.30;;;32.90;75.50;;;;;;4963393;28;20576;-85
2022/08/12 13:07:57;;;;;;;1.65;1.30;;;32.90;75.80;;;;;;4958266;28;20859;-85
2022/08/12 13:10:29;;;;;;;1.70;1.20;;;32.90;74.10;;;;;;4966405;28;20420;-82
2022/08/12 13:13:06;;;;;;;2.63;1.00;;;32.90;74.30;;;;;;4955060;28;20116;-85
2022/08/12 13:15:55;;;;;;;3.25;1.42;;;33.00;75.60;;;;;;4966978;28;20049;-84
2022/08/12 13:18:32;;;;;;;2.25;1.10;;;33.20;74.90;;;;;;4959566;28;20051;-85
2022/08/12 13:21:03;;;;;;;1.52;1.08;;;33.40;75.80;;;;;;4962783;28;20177;-85
2022/08/12 13:23:31;;;;;;;1.63;1.20;;;33.60;73.30;;;;;;4955468;28;20138;-84
2022/08/12 13:26:06;;;;;;;1.35;1.17;;;33.40;74.10;;;;;;4960047;28;20051;-84
2022/08/12 13:28:44;;;;;;;1.75;0.90;;;33.20;73.80;;;;;;4959320;28;20071;-83
2022/08/12 13:31:22;;;;;;;1.88;1.00;;;33.00;73.70;;;;;;4955415;28;20055;-85
2022/08/12 13:33:53;;;;;;;3.22;1.13;;;32.80;73.30;;;;;;4964274;28;20515;-83
2022/08/12 13:36:45;;;;;;;2.50;1.08;;;32.70;74.80;;;;;;4942472;28;20528;-84
2022/08/12 13:39:14;;;;;;;1.27;1.15;;;32.70;74.40;;;;;;4961601;28;20436;-84
2022/08/12 13:41:43;;;;;;;2.28;1.40;;;32.60;74.90;;;;;;4962605;28;20047;-84
2022/08/12 13:44:11;;;;;;;2.00;1.23;;;32.80;74.70;;;;;;4958721;28;20050;-85
2022/08/12 13:46:40;;;;;;;2.97;1.25;;;33.30;75.40;;;;;;4963549;28;20570;-81
2022/08/12 13:49:12;;;;;;;3.03;1.15;;;33.70;73.70;;;;;;4956572;28;20511;-84
2022/08/12 13:52:02;;;;;;;1.10;1.00;;;34.00;72.70;;;;;;4950538;28;20689;-84
2022/08/12 13:54:31;;;;;;;1.73;1.17;;;34.40;72.40;;;;;;4964375;28;20607;-84
2022/08/12 13:56:59;;;;;;;2.92;1.20;;;34.60;71.40;;;;;;4966077;28;20066;-85
2022/08/12 13:59:29;;;;;;;1.17;1.08;;;34.80;71.80;;;;;;4965360;28;20054;-85
2022/08/12 14:02:17;;;;;;;1.33;1.10;;;35.10;71.30;;;;;;4955614;28;20051;-85
2022/08/12 14:04:49;;;;;;;1.95;1.27;;;35.30;70.80;;;;;;4955882;28;20568;-82
2022/08/12 14:07:25;;;;;;;1.88;1.15;;;35.50;70.20;;;;;;4964814;28;20047;-82
2022/08/12 14:12:45;;;;;;;3.78;3.38;;;35.90;71.00;;;;;;4960309;28;20526;-81
2022/08/12 14:15:22;;;;;;;4.25;3.85;;;36.30;70.20;;;;;;4965404;28;20051;-80
2022/08/12 14:18:09;;;;;;;2.08;1.42;;;36.70;70.50;;;;;;4963501;28;20556;-82
2022/08/12 14:20:40;;;;;;;2.80;1.48;;;37.00;69.50;;;;;;4965390;28;20041;-82
2022/08/12 14:23:17;;;;;;;2.70;1.30;;;37.30;69.70;;;;;;4964423;28;20043;-83
2022/08/12 14:26:07;;;;;;;3.75;1.40;;;37.50;68.20;;;;;;4946951;28;20046;-82
2022/08/12 14:28:39;;;;;;;3.08;1.52;;;37.80;69.10;;;;;;4965631;28;20074;-83
2022/08/12 14:31:24;;;;;;;3.20;1.65;;;38.10;68.00;;;;;;4952470;28;20870;-82
2022/08/12 14:33:59;;;;;;;2.83;1.30;;;38.30;68.00;;;;;;4970125;28;20534;-84
2022/08/12 14:36:32;;;;;;;2.08;1.48;;;38.40;67.50;;;;;;4968342;28;20050;-83
2022/08/12 14:39:04;;;;;;;2.35;1.35;;;38.30;66.80;;;;;;4952342;28;20043;-83
2022/08/12 14:41:33;;;;;;;1.33;1.23;;;38.40;67.30;;;;;;4964209;28;20470;-79
2022/08/12 14:44:16;;;;;;;6.03;1.48;;;38.50;67.30;;;;;;4963335;28;20047;-78
2022/08/12 14:47:04;;;;;;;5.47;1.80;;;38.20;67.60;;;;;;4962951;28;20053;-83
2022/08/12 14:49:35;;;;;;;1.50;1.30;;;38.00;68.20;;;;;;4970553;28;20053;-84
2022/08/12 14:52:23;;;;;;;1.52;1.33;;;38.20;68.50;;;;;;4945501;28;20047;-84
2022/08/12 14:55:14;;;;;;;2.35;1.65;;;38.60;67.70;;;;;;4962351;28;20066;-81
2022/08/12 14:58:02;;;;;;;7.95;1.70;;;38.90;67.50;;;;;;4961416;28;20051;-86
2022/08/12 15:03:26;;;;;;;2.65;1.45;;;38.30;68.40;;;;;;4967657;28;20050;-86
2022/08/12 15:06:18;;;;;;;7.32;1.48;;;38.50;68.20;;;;;;4971184;28;20038;-87
2022/08/12 15:09:08;;;;;;;3.22;1.73;;;39.10;67.70;;;;;;4959228;28;20055;-85
2022/08/12 15:11:41;;;;;;;1.45;1.30;;;39.70;67.20;;;;;;4961039;28;20877;-86
2022/08/12 15:14:24;;;;;;;3.00;1.20;;;39.80;66.40;;;;;;4960784;28;20439;-86
2022/08/12 15:16:52;;;;;;;3.75;1.40;;;40.00;67.00;;;;;;4967241;28;20046;-85
2022/08/12 15:19:20;;;;;;;1.85;1.35;;;40.20;66.10;;;;;;4957571;28;20555;-83
2022/08/12 15:22:09;;;;;;;1.85;1.48;;;40.40;66.00;;;;;;4963975;28;20066;-82
2022/08/12 15:24:57;;;;;;;1.98;1.42;;;40.20;66.50;;;;;;4952742;28;20161;-79
2022/08/12 15:27:31;;;;;;;1.67;1.58;;;38.80;67.10;;;;;;4964436;28;20158;-83
2022/08/12 15:30:19;;;;;;;2.25;1.50;;;38.60;67.70;;;;;;4962169;28;20559;-84
2022/08/12 15:32:49;;;;;;;2.25;1.55;;;39.30;67.20;;;;;;4968585;28;20728;-84
2022/08/12 15:35:18;;;;;;;3.50;1.75;;;39.70;67.00;;;;;;4950135;28;20047;-84